EGLLEBBR

Guest
Details From EGLL - London Heathrow
To EBBR - Brussels Airport
Flight Number -
Tags generated
Created
Modified
Stats Distance 190 nm / 351 km
Max Altitude 19,600 ft / 5,974 m
Waypoints 3
Social Downloads 0
Likes 0
Share VATSIM

Download

Looking for another format? Having issues loading an existing format? Contact us
Advertisement - Login to hide

Notes

Basic altitude profile: - Ascent Rate: 2400ft/min - Ascent Speed: 245kts - Cruise Altitude: 35000ft - Cruise Speed: 280kts - Descent Rate: 1400ft/min - Descent Speed: 240kts Options: - Use NATs: yes - Use PACOTS: yes - Use low airways: yes - Use high airways: yes

Route

EGLL VABIK EBBR

ID Type Via Altitude Latitude Longitude Leg Dist Tot Dist Heading (true) Name
O EGLL APT - 0 ft / 0 m 51.47122˚ -0.46098˚ - 0 nm - London Heathrow
VABIK FIX - 19,600 ft / 5,974 m 51.24639˚ 2.00000˚ 93 nm 93 nm 97° / 99° -
O EBBR APT - 0 ft / 0 m 50.89995˚ 4.49281˚ 96 nm 189 nm 102° / 103° Brussels Airport

Altitude Profile

Advertisement - Login to hide

Weather


0- 5 10 15 20 25 30 35+ Temperature / ° C

Clouds and Precipitation
Forecast for 2018-07-22 06:00 UTC. Updated 5 hours ago

Ground ~20,000 ft ~40,000 ft Winds

EGLL

Details ICAO EGLL (LHR)
Name London Heathrow
Region United Kingdom
Timezone Europe/London (UTC+1.0)
Stats Elevation 83 ft / 25 m (AMSL)
Location 51.471218° -0.460978°
Runways 2
Magnetic Variation 0.471° W

METAR

EGLL 220820Z AUTO VRB02KT 9999 NCD 21/14 Q1016 NOSIG

Decode

TAF

TAF EGLL 220502Z 2206/2312 28005KT 9999 FEW045 PROB30 2302/2307 8000

Decode

Departure Runways

ID Width Length Bearing (true) Bearing (mag) Surface Threshold Offset Overrun Length
09L 164 ft / 50 m 12,811 ft / 3,905 m 89.64° 90.11° Asphalt 1,004 ft / 306 m 0 ft / 0 m
09R 164 ft / 50 m 12,019 ft / 3,663 m 89.67° 90.14° Asphalt 1,007 ft / 307 m 0 ft / 0 m
27L 164 ft / 50 m 12,019 ft / 3,663 m 269.71° 270.18° Asphalt 0 ft / 0 m 69 ft / 21 m
27R 164 ft / 50 m 12,811 ft / 3,905 m 269.69° 270.16° Asphalt 0 ft / 0 m 69 ft / 21 m

EBBR

Details ICAO EBBR (BRU)
Name Brussels Airport
Region Belgium
Timezone Europe/Brussels (UTC+2.0)
Stats Elevation 184 ft / 56 m (AMSL)
Location 50.899948° 4.492814°
Runways 3
Magnetic Variation 1.206° E

METAR

EBBR 220820Z VRB01KT CAVOK 23/10 Q1016 NOSIG

Decode

TAF

TAF EBBR 220510Z 2206/2312 28005KT 9999 FEW040= TAF EDDF 220500Z 2206/2312 VRB03KT CAVOK BECMG 2206/2209 22005KT BECMG 2212/2215 32006KT PROB30 TEMPO 2213/2219 34015G25KT 4000 TSRA SCT040CB BECMG 2219/2222 VRB03KT

Decode

Destination Runways

ID Width Length Bearing (true) Bearing (mag) Surface Threshold Offset Overrun Length
02 164 ft / 50 m 9,896 ft / 3,016 m 14.41° 13.20° Asphalt 249 ft / 76 m 0 ft / 0 m
07L 148 ft / 45 m 12,106 ft / 3,690 m 65.16° 63.95° Asphalt 801 ft / 244 m 0 ft / 0 m
07R 148 ft / 45 m 10,703 ft / 3,262 m 69.90° 68.69° Asphalt 499 ft / 152 m 0 ft / 0 m
20 164 ft / 50 m 9,896 ft / 3,016 m 194.42° 193.21° Asphalt 751 ft / 229 m 0 ft / 0 m
25L 148 ft / 45 m 10,703 ft / 3,262 m 249.93° 248.72° Asphalt 499 ft / 152 m 0 ft / 0 m
25R 148 ft / 45 m 12,106 ft / 3,690 m 245.20° 243.99° Asphalt 801 ft / 244 m 0 ft / 0 m

Approach Navaids

Runway Type Ident Frequency Range Bearing (true) Bearing (mag) Slope Elevation
02 Localiser IBX 109.90 MHz 18 nm / 33 km 14.41° 13.21° - 184 ft / 56 m (AMSL)
02 Glidescope IBX 109.90 MHz 10 nm / 19 km 14.41° 13.21° 3.00° 184 ft / 56 m (AMSL)
02 DME IBX 109.90 MHz 18 nm / 33 km - - - 184 ft / 56 m (AMSL)
20 Localiser IBM 111.15 MHz 18 nm / 33 km 194.48° 193.27° - 184 ft / 56 m (AMSL)
20 Glidescope IBM 111.15 MHz 10 nm / 19 km 194.41° 193.21° 3.00° 184 ft / 56 m (AMSL)
20 DME IBM 111.15 MHz 18 nm / 33 km - - - 184 ft / 56 m (AMSL)
25L Localiser IBL 110.35 MHz 18 nm / 33 km 249.89° 248.68° - 184 ft / 56 m (AMSL)
25L Glidescope IBL 110.35 MHz 10 nm / 19 km 249.91° 248.71° 3.00° 184 ft / 56 m (AMSL)
25R Localiser IBR 108.90 MHz 18 nm / 33 km 245.34° 244.13° - 184 ft / 56 m (AMSL)
25R Glidescope IBR 108.90 MHz 10 nm / 19 km 245.18° 243.98° 3.00° 184 ft / 56 m (AMSL)
25R DME IBR 108.90 MHz 18 nm / 33 km - - - 184 ft / 56 m (AMSL)

Popular Alternatives